Scottish Airport Reports

Civil airfields updated at H+20 and H+50
RAF airfields updated at H+50 only

EGPD - Aberdeen
Distance from station: NNE 19mi, 31km
Updated: 23/02/2020 00:20
Clear
Clear
 Wind from WSW
Wind: WSW 15 mph , 24 km/h
Temperature: 3°C
Wind Chill: -2°C
Dew Point: -3°C
Humidity: 65%
Barometer: 1001 hPa
Clouds: Clear
Visibility: 6 miles , 10 km
2020/02/23 00:20 EGPD 230020Z AUTO 24013KT 9999 NCD 03/M03 Q1001 NOSIG
EGPN - Dundee
Distance from station: SW 41mi, 66km
Updated: 22/02/2020 15:50
NOT Current
Nearby showers, Few clouds
Nearby showers, Few clouds
 Wind from W
Wind: W 20 mph , 31 km/h
Temperature: 4°C
Wind Chill: -2°C
Dew Point: 1°C
Humidity: 81%
Barometer: 1001 hPa
Summary: Nearby Showers
Clouds: Few Clouds
Visibility: 6 miles , 10 km
Cloud details: Few Clouds 1000 ft
2020/02/22 15:50 EGPN 221550Z 27017KT 9999 VCSH FEW010CB 04/01 Q1001
 
EGQS - RAF Lossiemouth
Distance from station: NNW 63mi, 102km
Updated: 22/02/2020 23:50
Few Clouds
Few Clouds
 Wind from W
Wind: W 16 mph , 26 km/h
Temperature: 3°C
Wind Chill: -2°C
Dew Point: -2°C
Humidity: 70%
Barometer: 1000 hPa
Clouds: Few Clouds
Visibility: 6 miles , 10 km
Cloud details: Few Clouds 1800 ft
2020/02/22 23:50 EGQS 222350Z 26014KT 9999 FEW018 03/M02 Q1000 RMK BLU
EGPE - Inverness
Distance from station: WNW 73mi, 117km
Updated: 23/02/2020 00:20
Light snow, Overcast
Light snow, Overcast
 Wind from SW
Wind: SW 15 mph , 24 km/h, Gust: 29 mph , 46 km/h
Temperature: 2°C
Wind Chill: -3°C
Dew Point: 1°C
Humidity: 93%
Barometer: 1001 hPa
Summary: Light Snow
Clouds: Overcast
Visibility: 5 miles , 8 km
Cloud details: Mostly cloudy 600 ft
Mostly cloudy 1600 ft
Overcast 4700 ft
2020/02/23 00:20 EGPE 230020Z AUTO 22013G25KT 8000 -SN BKN006/// BKN016/// OVC047/// 02/01 Q1001
 
EGPH - Edinburgh
Distance from station: SSW 77mi, 125km
Updated: 23/02/2020 00:20
Mostly cloudy
Mostly cloudy
 Wind from WSW
Wind: WSW 16 mph , 26 km/h
Temperature: 3°C
Wind Chill: -2°C
Dew Point: 2°C
Humidity: 93%
Barometer: 1006 hPa
Clouds: Mostly cloudy
Visibility: 6 miles , 10 km
Cloud details: Partly cloudy 3000 ft
Mostly cloudy 4500 ft
2020/02/23 00:20 EGPH 230020Z 24014KT 9999 SCT030 BKN045 03/02 Q1006
EGPC - Wick
Distance from station: NNW 107mi, 172km
Updated: 23/02/2020 00:20
Partly cloudy
Partly cloudy
 Wind from W
Wind: W 16 mph , 26 km/h
Temperature: 3°C
Wind Chill: -2°C
Dew Point: 0°C
Humidity: 81%
Barometer: 996 hPa
Clouds: Partly cloudy
Visibility: 6 miles , 10 km
Cloud details: Few Clouds 2900 ft
Partly cloudy 4300 ft
2020/02/23 00:20 EGPC 230020Z AUTO 26014KT 9999 FEW029/// SCT043/// 03/00 Q0996
 
EGPF - Glasgow
Distance from station: SW 107mi, 172km
Updated: 23/02/2020 00:20
Thunderstorm
Thunderstorm
 Wind from SW
Wind: SW 20 mph , 31 km/h
Temperature: 4°C
Wind Chill: -2°C
Dew Point: 2°C
Humidity: 87%
Barometer: 1006 hPa
Clouds: Thunderstorm
Visibility: 6 miles , 10 km
2020/02/23 00:20 EGPF 230020Z AUTO 23017KT 9999 //////TCU 04/02 Q1006
EGPK - Prestwick
Distance from station: SW 130mi, 209km
Updated: 22/02/2020 23:50
Light rain, Showers, Partly cloudy
Light rain, Showers, Partly cloudy
 Wind from SW
Wind: SW 20 mph , 31 km/h, Gust: 31 mph , 50 km/h
Temperature: 5°C
Wind Chill: 0°C
Dew Point: 2°C
Humidity: 81%
Barometer: 1008 hPa
Summary: Light rain, Showers
Clouds: Partly cloudy
Visibility: 6 miles , 10 km
Cloud details: Partly cloudy 1800 ft
2020/02/22 23:50 EGPK 222350Z 22017G27KT 9999 -SHRA SCT018 05/02 Q1008
 
EGPA - Kirkwall, Orkney
Distance from station: N 140mi, 225km
Updated: 23/02/2020 00:20
Overcast
Overcast
 Wind from W
Wind: W 37 mph , 59 km/h, Gust: 48 mph , 78 km/h
Temperature: 5°C
Wind Chill: -2°C
Dew Point: 2°C
Humidity: 81%
Barometer: 994 hPa
Clouds: Overcast
Visibility: 6 miles , 10 km
Cloud details: Few Clouds 2100 ft
Mostly cloudy 2700 ft
Overcast 3600 ft
2020/02/23 00:20 EGPA 230020Z AUTO 26032G42KT 9999 FEW021/// BKN027/// OVC036/// 05/02 Q0994
EGPO - Stornoway, Outer Hebrides
Distance from station: WNW 169mi, 273km
Updated: 23/02/2020 00:20
Light rain, Few clouds
Light rain, Few clouds
 Wind from WSW
Wind: WSW 21 mph , 33 km/h
Temperature: 3°C
Wind Chill: -3°C
Dew Point: 1°C
Humidity: 87%
Barometer: 998 hPa
Summary: Light rain
Clouds: Few Clouds
Visibility: 6 miles , 10 km
Cloud details: Few Clouds 2700 ft
2020/02/23 00:20 EGPO 230020Z AUTO 24018KT 9999 -RA FEW027/// 03/01 Q0998
 
EGPI - Islay, Inner Hebrides
Distance from station: WSW 172mi, 276km
Updated: 23/02/2020 00:20
Light drizzle, Mostly cloudy
Light drizzle, Mostly cloudy
 Wind from WSW
Wind: WSW 18 mph , 30 km/h
Temperature: 5°C
Wind Chill: 0°C
Dew Point: 3°C
Humidity: 87%
Barometer: 1006 hPa
Summary: Light Drizzle
Clouds: Mostly cloudy
Visibility: 5 miles , 8 km
Cloud details: Few Clouds 1400 ft
Mostly cloudy 1900 ft
2020/02/23 00:20 EGPI 230020Z AUTO 25016KT 8000 -DZ FEW014/// BKN019/// 05/03 Q1006
EGPU - Tiree, Inner Hebrides
Distance from station: W 172mi, 276km
Updated: 23/02/2020 00:20
Clear
Clear
 Wind from W
Wind: W 21 mph , 33 km/h
Temperature: 5°C
Wind Chill: 0°C
Dew Point: 1°C
Humidity: 76%
Barometer: 1004 hPa
Clouds: Clear
Visibility: 6 miles , 10 km
2020/02/23 00:20 EGPU 230020Z AUTO 27018KT 9999 NCD 05/01 Q1004 RERA
 
EGPB - Sumburgh, Shetland
Distance from station: NNE 208mi, 332km
Updated: 23/02/2020 00:20
Light rain, Mostly cloudy
Light rain, Mostly cloudy
 Wind from W
Wind: W 26 mph , 43 km/h
Temperature: 6°C
Wind Chill: 1°C
Dew Point: 3°C
Humidity: 81%
Barometer: 990 hPa
Summary: Light rain
Clouds: Mostly cloudy
Visibility: 4 miles , 6 km
Cloud details: Mostly cloudy 1700 ft
Mostly cloudy 3300 ft
2020/02/23 00:20 EGPB 230020Z AUTO 27023KT 6000 -RA BKN017/// BKN033/// 06/03 Q0990 RERA
EGPM - Scatsa, Shetland
Distance from station: NNE 245mi, 392km
Updated: 23/02/2020 00:20
Light rain, Mostly cloudy
Light rain, Mostly cloudy
 Wind from NNW
Wind: NNW 6 mph , 9 km/h
Temperature: 4°C
Wind Chill: 2°C
Dew Point: 2°C
Humidity: 87%
Barometer: 989 hPa
Summary: Light rain
Clouds: Mostly cloudy
Visibility: 4 miles , 6 km
Cloud details: Mostly cloudy 1500 ft
2020/02/23 00:20 EGPM 230020Z AUTO 34005KT 6000 -RA BKN015/// 04/02 Q0989
-->